Time;durP1;ratioP1;P1;durP2;ratioP2;P2;SDS_P1;SDS_P2;PMS_P1;PMS_P2;Temp;Humidity;BMP_temperature;BMP_pressure;BME280_temperature;BME280_humidity;BME280_pressure;Samples;Min_cycle;Max_cycle;Signal;HPM_P1;HPM_P2
2023/11/01 00:02:13;;;;;;;2.45;1.05;;;9.80;82.20;;;;;;5093341;28;20714;-75
2023/11/01 00:04:40;;;;;;;3.40;1.38;;;9.80;82.20;;;;;;5094073;28;20250;-75
2023/11/01 00:07:09;;;;;;;2.85;1.30;;;9.80;81.80;;;;;;5093726;28;20724;-75
2023/11/01 00:09:37;;;;;;;3.03;1.10;;;9.80;81.50;;;;;;5093651;28;20719;-75
2023/11/01 00:12:05;;;;;;;4.43;1.80;;;9.70;81.20;;;;;;5093720;28;20197;-75
2023/11/01 00:14:34;;;;;;;3.45;1.77;;;9.70;81.60;;;;;;5093601;28;20196;-75
2023/11/01 00:17:01;;;;;;;4.78;1.73;;;9.60;81.90;;;;;;5093910;28;20224;-75
2023/11/01 00:19:28;;;;;;;3.13;1.45;;;9.60;82.60;;;;;;5093518;28;20217;-75
2023/11/01 00:21:55;;;;;;;3.72;1.73;;;9.60;81.70;;;;;;5093331;28;20209;-75
2023/11/01 00:24:22;;;;;;;3.70;2.10;;;9.50;81.80;;;;;;5093455;28;20197;-75
2023/11/01 00:26:49;;;;;;;2.58;1.20;;;9.50;82.10;;;;;;5093566;28;20207;-74
2023/11/01 00:29:16;;;;;;;3.88;1.30;;;9.60;82.10;;;;;;5093909;28;20228;-75
2023/11/01 00:31:44;;;;;;;3.53;1.50;;;9.50;81.60;;;;;;5093093;28;20247;-75
2023/11/01 00:34:11;;;;;;;2.25;1.00;;;9.50;81.80;;;;;;5092160;28;20598;-75
2023/11/01 00:36:38;;;;;;;2.70;1.13;;;9.40;81.70;;;;;;5092113;28;20217;-75
2023/11/01 00:39:05;;;;;;;1.80;0.63;;;9.40;81.00;;;;;;5093733;28;20186;-75
2023/11/01 00:41:32;;;;;;;2.05;0.90;;;9.40;81.20;;;;;;5093626;28;20687;-75
2023/11/01 00:43:59;;;;;;;3.25;0.90;;;9.30;81.70;;;;;;5093908;28;20228;-75
2023/11/01 00:46:26;;;;;;;2.40;1.00;;;9.30;82.30;;;;;;5093672;28;20182;-74
2023/11/01 00:48:54;;;;;;;2.45;1.00;;;9.30;82.10;;;;;;5093937;28;20190;-75
2023/11/01 00:51:21;;;;;;;2.40;1.35;;;9.40;82.80;;;;;;5093891;28;20250;-75
2023/11/01 00:53:48;;;;;;;2.40;1.40;;;9.40;83.70;;;;;;5093536;28;20257;-75
2023/11/01 00:56:15;;;;;;;2.80;1.80;;;9.40;84.00;;;;;;5093714;28;20247;-75
2023/11/01 00:58:42;;;;;;;2.63;1.00;;;9.50;83.80;;;;;;5093527;28;20223;-75
2023/11/01 01:01:09;;;;;;;3.28;1.65;;;9.60;82.60;;;;;;5093481;28;20213;-75
2023/11/01 01:03:35;;;;;;;3.70;1.77;;;9.50;81.80;;;;;;5093714;28;20185;-75
2023/11/01 01:06:05;;;;;;;3.33;1.10;;;9.50;82.20;;;;;;5093453;28;20242;-75
2023/11/01 01:08:32;;;;;;;4.57;1.35;;;9.40;81.90;;;;;;5093442;28;20229;-75
2023/11/01 01:10:59;;;;;;;3.20;1.10;;;9.40;82.30;;;;;;5093332;28;20594;-74
2023/11/01 01:13:26;;;;;;;3.03;1.48;;;9.30;82.40;;;;;;5093722;28;20250;-75
2023/11/01 01:15:53;;;;;;;3.83;1.17;;;9.30;83.00;;;;;;5092989;28;20724;-75
2023/11/01 01:18:20;;;;;;;2.35;1.02;;;9.20;83.90;;;;;;5093319;28;20193;-75
2023/11/01 01:20:47;;;;;;;2.38;0.95;;;9.20;84.40;;;;;;5093756;28;20225;-75
2023/11/01 01:23:16;;;;;;;2.00;0.80;;;9.20;84.70;;;;;;5093206;28;20209;-75
2023/11/01 01:25:43;;;;;;;2.00;0.85;;;9.10;84.80;;;;;;5092971;28;20640;-75
2023/11/01 01:28:09;;;;;;;3.15;1.67;;;9.10;85.50;;;;;;5093535;28;20193;-75
2023/11/01 01:30:37;;;;;;;3.45;1.60;;;9.10;84.10;;;;;;5093308;28;20591;-74
2023/11/01 01:33:04;;;;;;;2.85;1.35;;;9.00;83.40;;;;;;5093572;28;20193;-75
2023/11/01 01:35:31;;;;;;;4.28;1.35;;;9.00;83.30;;;;;;5094938;28;20656;-74
2023/11/01 01:37:58;;;;;;;2.10;1.08;;;9.00;83.70;;;;;;5097166;28;20221;-75
2023/11/01 01:40:26;;;;;;;3.35;1.40;;;9.00;83.90;;;;;;5097434;28;20185;-75
2023/11/01 01:42:53;;;;;;;2.92;1.20;;;8.80;84.30;;;;;;5097166;28;20217;-75
2023/11/01 01:45:20;;;;;;;2.30;1.08;;;8.80;84.40;;;;;;5096959;28;20221;-74
2023/11/01 01:47:48;;;;;;;2.05;0.90;;;8.80;84.60;;;;;;5097198;28;20190;-75
2023/11/01 01:50:15;;;;;;;2.20;0.90;;;8.80;84.80;;;;;;5096965;28;20295;-75
2023/11/01 01:52:42;;;;;;;2.40;1.27;;;8.70;86.10;;;;;;5096805;28;20644;-74
2023/11/01 01:55:10;;;;;;;3.30;1.02;;;8.70;85.40;;;;;;5096800;28;20235;-75
2023/11/01 01:57:39;;;;;;;2.05;0.90;;;8.60;85.60;;;;;;5097027;28;20196;-75
2023/11/01 02:00:08;;;;;;;4.05;1.00;;;8.60;85.90;;;;;;5096545;28;20221;-74
2023/11/01 02:02:35;;;;;;;2.30;1.00;;;8.60;86.10;;;;;;5097133;28;20220;-75
2023/11/01 02:05:06;;;;;;;2.53;1.80;;;8.50;86.70;;;;;;5096383;28;20189;-75
2023/11/01 02:07:33;;;;;;;2.00;0.90;;;8.50;87.30;;;;;;5096900;28;20206;-74
2023/11/01 02:10:00;;;;;;;1.90;0.80;;;8.40;87.70;;;;;;5096194;28;20277;-74
2023/11/01 02:12:27;;;;;;;2.20;0.90;;;8.30;88.50;;;;;;5096721;28;20262;-75
2023/11/01 02:14:55;;;;;;;2.10;1.00;;;8.30;89.00;;;;;;5096761;28;20221;-74
2023/11/01 02:17:22;;;;;;;2.80;1.20;;;8.30;89.20;;;;;;5096722;28;20190;-74
2023/11/01 02:19:49;;;;;;;1.92;0.90;;;8.30;89.20;;;;;;5096076;28;20253;-74
2023/11/01 02:22:16;;;;;;;2.00;0.80;;;8.30;89.00;;;;;;5096582;28;20221;-74
2023/11/01 02:24:44;;;;;;;2.00;0.90;;;8.30;88.90;;;;;;5095487;28;20217;-75
2023/11/01 02:27:12;;;;;;;2.00;0.80;;;8.20;89.10;;;;;;5096003;28;20196;-74
2023/11/01 02:29:39;;;;;;;2.88;1.00;;;8.20;89.40;;;;;;5096016;28;20242;-75
2023/11/01 02:32:08;;;;;;;3.00;1.40;;;8.20;89.40;;;;;;5095922;28;20318;-74
2023/11/01 02:34:35;;;;;;;5.70;2.38;;;8.20;89.70;;;;;;5096378;28;20196;-75
2023/11/01 02:37:03;;;;;;;2.30;0.90;;;8.20;90.10;;;;;;5096331;28;20190;-74
2023/11/01 02:39:29;;;;;;;3.15;1.10;;;8.10;90.10;;;;;;5095942;28;20281;-75
2023/11/01 02:41:58;;;;;;;2.72;1.00;;;8.10;90.30;;;;;;5096251;28;20606;-74
2023/11/01 02:44:25;;;;;;;1.98;0.80;;;8.10;90.50;;;;;;5096206;28;20191;-74
2023/11/01 02:46:52;;;;;;;1.80;0.80;;;8.10;90.20;;;;;;5094844;28;20281;-74
2023/11/01 02:49:18;;;;;;;2.10;0.98;;;8.20;90.10;;;;;;5096142;28;20610;-74
2023/11/01 02:51:46;;;;;;;2.15;0.95;;;8.10;90.10;;;;;;5096126;28;20278;-74
2023/11/01 02:54:13;;;;;;;2.97;0.93;;;8.10;90.10;;;;;;5095490;28;20197;-74
2023/11/01 02:56:40;;;;;;;2.22;0.82;;;8.10;89.30;;;;;;5095759;28;20294;-75
2023/11/01 02:59:08;;;;;;;1.77;0.65;;;8.10;89.40;;;;;;5095247;28;20235;-74
2023/11/01 03:01:36;;;;;;;1.85;0.80;;;8.00;89.80;;;;;;5095527;28;20225;-74
2023/11/01 03:04:03;;;;;;;1.80;0.80;;;8.00;89.80;;;;;;5095435;28;20256;-74
2023/11/01 03:06:30;;;;;;;1.90;0.80;;;8.00;90.00;;;;;;5095324;28;20196;-74
2023/11/01 03:08:57;;;;;;;2.22;0.80;;;8.00;89.80;;;;;;5095773;28;20239;-74
2023/11/01 03:11:24;;;;;;;2.13;0.80;;;7.90;90.00;;;;;;5095604;28;20211;-74
2023/11/01 03:13:51;;;;;;;1.98;0.75;;;7.80;90.30;;;;;;5095268;28;20594;-74
2023/11/01 03:16:19;;;;;;;1.90;0.70;;;7.80;90.50;;;;;;5095191;28;20193;-74
2023/11/01 03:18:46;;;;;;;2.00;0.80;;;7.80;90.40;;;;;;5095551;28;20201;-74
2023/11/01 03:21:13;;;;;;;2.10;0.82;;;7.80;90.50;;;;;;5095498;28;20252;-74
2023/11/01 03:23:40;;;;;;;1.90;0.90;;;7.90;90.50;;;;;;5095470;28;20209;-74
2023/11/01 03:26:07;;;;;;;1.90;0.70;;;7.80;90.50;;;;;;5094985;28;20322;-75
2023/11/01 03:28:34;;;;;;;2.35;1.13;;;7.80;90.50;;;;;;5095012;28;20240;-74
2023/11/01 03:31:00;;;;;;;2.85;1.08;;;7.80;90.50;;;;;;5094966;28;20224;-74
2023/11/01 03:33:29;;;;;;;1.83;0.73;;;7.70;90.50;;;;;;5094852;28;20732;-74
2023/11/01 03:35:56;;;;;;;2.13;0.95;;;7.70;90.70;;;;;;5094475;28;20213;-75
2023/11/01 03:38:23;;;;;;;2.65;1.00;;;7.70;90.80;;;;;;5094828;28;20703;-74
2023/11/01 03:40:50;;;;;;;1.90;0.80;;;7.70;90.90;;;;;;5094923;28;20193;-74
2023/11/01 03:43:17;;;;;;;2.95;0.75;;;7.70;91.00;;;;;;5094894;28;20266;-74
2023/11/01 03:45:44;;;;;;;2.00;0.85;;;7.60;91.00;;;;;;5095055;28;20225;-75
2023/11/01 03:48:11;;;;;;;2.13;0.93;;;7.60;91.20;;;;;;5094530;28;20193;-74
2023/11/01 03:50:40;;;;;;;1.80;0.70;;;7.60;91.40;;;;;;5094335;28;20212;-74
2023/11/01 03:53:07;;;;;;;2.10;0.93;;;7.60;91.50;;;;;;5094410;28;20266;-74
2023/11/01 03:55:34;;;;;;;2.08;0.90;;;7.60;91.50;;;;;;5094688;28;20528;-75
2023/11/01 03:58:01;;;;;;;2.15;0.80;;;7.60;91.40;;;;;;5094324;28;20189;-74
2023/11/01 04:00:28;;;;;;;5.70;0.93;;;7.50;91.30;;;;;;5094733;28;20598;-74
2023/11/01 04:02:55;;;;;;;2.28;1.10;;;7.50;91.10;;;;;;5094600;28;20248;-75
2023/11/01 04:05:22;;;;;;;2.10;1.00;;;7.50;91.10;;;;;;5093938;28;20221;-74
2023/11/01 04:07:50;;;;;;;2.65;0.82;;;7.50;91.20;;;;;;5094729;28;20228;-75
2023/11/01 04:10:17;;;;;;;3.85;0.90;;;7.50;91.20;;;;;;5094203;28;20695;-75
2023/11/01 04:12:44;;;;;;;2.45;1.10;;;7.50;91.50;;;;;;5094531;28;20236;-74
2023/11/01 04:15:12;;;;;;;2.15;1.00;;;7.50;91.00;;;;;;5094499;28;20221;-74
2023/11/01 04:17:39;;;;;;;1.90;0.82;;;7.50;91.00;;;;;;5094384;28;20256;-74
2023/11/01 04:20:07;;;;;;;2.95;0.80;;;7.40;91.20;;;;;;5093772;28;20710;-74
2023/11/01 04:22:35;;;;;;;3.58;0.80;;;7.40;90.90;;;;;;5094342;28;20217;-75
2023/11/01 04:25:05;;;;;;;2.47;1.00;;;7.40;91.00;;;;;;5093986;28;20285;-74
2023/11/01 04:27:34;;;;;;;2.20;1.10;;;7.40;91.00;;;;;;5094121;28;20197;-74
2023/11/01 04:30:04;;;;;;;2.38;1.13;;;7.40;90.90;;;;;;5094208;28;20280;-74
2023/11/01 04:32:31;;;;;;;2.00;0.90;;;7.30;90.90;;;;;;5093794;28;20201;-74
2023/11/01 04:34:57;;;;;;;4.07;1.00;;;7.30;90.70;;;;;;5093836;28;20231;-74
2023/11/01 04:37:26;;;;;;;1.98;0.70;;;7.30;90.50;;;;;;5093770;28;20193;-74
2023/11/01 04:39:53;;;;;;;2.10;0.80;;;7.20;90.50;;;;;;5093769;28;20643;-74
2023/11/01 04:42:21;;;;;;;2.30;0.95;;;7.20;90.50;;;;;;5093961;28;20240;-74
2023/11/01 04:44:48;;;;;;;1.80;0.80;;;7.20;90.70;;;;;;5093677;28;20225;-74
2023/11/01 04:47:15;;;;;;;2.50;1.00;;;7.10;90.50;;;;;;5093930;28;20224;-74
2023/11/01 04:49:43;;;;;;;2.10;0.95;;;7.10;90.50;;;;;;5093520;28;20254;-74
2023/11/01 04:52:11;;;;;;;2.65;1.30;;;7.10;90.60;;;;;;5093579;28;20249;-75
2023/11/01 04:54:37;;;;;;;17.73;16.13;;;7.00;90.90;;;;;;5093938;28;20215;-74
2023/11/01 04:57:05;;;;;;;12.25;11.15;;;7.00;91.10;;;;;;5093740;28;20225;-74
2023/11/01 04:59:34;;;;;;;8.15;7.18;;;7.00;91.10;;;;;;5093534;28;20201;-74
2023/11/01 05:02:01;;;;;;;9.10;7.05;;;7.00;91.40;;;;;;5093403;28;20193;-74
2023/11/01 05:04:28;;;;;;;7.95;6.38;;;7.00;91.50;;;;;;5093026;28;20205;-75
2023/11/01 05:06:55;;;;;;;4.07;3.22;;;7.00;91.60;;;;;;5093856;28;20224;-75
2023/11/01 05:09:25;;;;;;;4.70;3.05;;;7.00;91.40;;;;;;5093818;28;20185;-74
2023/11/01 05:11:52;;;;;;;6.88;2.72;;;7.00;91.50;;;;;;5097512;28;20181;-74
2023/11/01 05:14:19;;;;;;;2.70;1.40;;;7.00;91.40;;;;;;5097531;28;20236;-74
2023/11/01 05:16:49;;;;;;;3.28;1.50;;;6.90;91.60;;;;;;5097204;28;20263;-75
2023/11/01 05:19:19;;;;;;;2.47;1.38;;;6.90;91.00;;;;;;5077124;28;20321;-74
2023/11/01 05:21:46;;;;;;;3.55;2.42;;;6.90;90.60;;;;;;5077550;28;20251;-74
2023/11/01 05:24:13;;;;;;;3.20;1.50;;;6.80;90.60;;;;;;5077362;28;20311;-74
2023/11/01 05:26:40;;;;;;;4.05;1.85;;;6.80;90.60;;;;;;5077002;28;20683;-74
2023/11/01 05:29:08;;;;;;;3.45;1.52;;;6.80;90.80;;;;;;5077378;28;20675;-74
2023/11/01 05:31:34;;;;;;;3.28;1.40;;;6.70;91.10;;;;;;5079295;28;20248;-74
2023/11/01 05:34:04;;;;;;;3.17;1.58;;;6.70;91.20;;;;;;5097213;28;20193;-74
2023/11/01 05:36:31;;;;;;;3.10;2.30;;;6.70;91.10;;;;;;5097208;28;20193;-74
2023/11/01 05:39:05;;;;;;;4.78;2.70;;;6.70;91.10;;;;;;5097456;28;20660;-75
2023/11/01 05:41:32;;;;;;;3.75;2.35;;;6.60;91.20;;;;;;5097090;28;20217;-74
2023/11/01 05:43:59;;;;;;;4.13;2.42;;;6.60;91.00;;;;;;5096939;28;20271;-74
2023/11/01 05:46:27;;;;;;;8.05;3.92;;;6.50;91.00;;;;;;5096643;28;20228;-74
2023/11/01 05:48:54;;;;;;;4.55;2.92;;;6.50;90.70;;;;;;5097074;28;20189;-75
2023/11/01 05:51:22;;;;;;;4.90;2.92;;;6.40;90.60;;;;;;5096773;28;20189;-74
2023/11/01 05:53:49;;;;;;;4.72;2.65;;;6.30;90.70;;;;;;5096887;28;20189;-74
2023/11/01 05:56:16;;;;;;;4.75;3.13;;;6.30;90.80;;;;;;5097092;28;20186;-74
2023/11/01 05:58:43;;;;;;;3.42;2.03;;;6.30;90.70;;;;;;5097022;28;20225;-74
2023/11/01 06:01:10;;;;;;;3.70;2.13;;;6.30;90.60;;;;;;5096334;28;20231;-74
2023/11/01 06:03:36;;;;;;;2.50;1.60;;;6.30;90.60;;;;;;5096478;28;20217;-74
2023/11/01 06:06:04;;;;;;;2.80;1.65;;;6.30;90.50;;;;;;5096290;28;20239;-74
2023/11/01 06:08:32;;;;;;;3.42;1.88;;;6.20;90.40;;;;;;5096639;28;20186;-74
2023/11/01 06:10:59;;;;;;;4.25;2.03;;;6.20;90.50;;;;;;5096531;28;20321;-75
2023/11/01 06:13:26;;;;;;;3.72;2.20;;;6.10;90.90;;;;;;5096243;28;20678;-74
2023/11/01 06:15:58;;;;;;;2.53;1.60;;;6.10;91.10;;;;;;5095878;28;20185;-75
2023/11/01 06:18:25;;;;;;;2.65;1.48;;;6.10;91.10;;;;;;5096378;28;20174;-74
2023/11/01 06:20:51;;;;;;;2.40;1.30;;;6.20;91.50;;;;;;5096255;28;20236;-74
2023/11/01 06:23:18;;;;;;;3.10;1.33;;;6.30;92.00;;;;;;5096231;28;20601;-75
2023/11/01 06:25:46;;;;;;;3.83;1.90;;;6.50;92.30;;;;;;5096222;28;20439;-75
2023/11/01 06:28:14;;;;;;;2.53;1.63;;;6.80;92.30;;;;;;5096213;28;20270;-75
2023/11/01 06:30:41;;;;;;;2.40;1.20;;;7.20;92.20;;;;;;5095659;28;20189;-75
2023/11/01 06:33:08;;;;;;;3.15;1.58;;;7.60;91.80;;;;;;5096182;28;20598;-75
2023/11/01 06:35:35;;;;;;;3.90;1.38;;;7.90;91.00;;;;;;5095872;28;20247;-75
2023/11/01 06:38:02;;;;;;;3.38;1.55;;;8.10;90.30;;;;;;5096121;28;20189;-75
2023/11/01 06:40:29;;;;;;;4.13;2.50;;;8.30;89.20;;;;;;5095965;28;20247;-75
2023/11/01 06:42:57;;;;;;;6.32;2.47;;;8.40;87.10;;;;;;5095750;28;20220;-75
2023/11/01 06:45:26;;;;;;;6.43;2.90;;;8.70;83.70;;;;;;5095878;28;20197;-75
2023/11/01 06:47:53;;;;;;;3.50;2.33;;;8.80;83.00;;;;;;5095118;28;20189;-75
2023/11/01 06:50:20;;;;;;;3.58;2.42;;;9.00;82.30;;;;;;5095497;28;20298;-75
2023/11/01 06:52:47;;;;;;;3.25;2.65;;;9.20;81.10;;;;;;5095689;28;20193;-75
2023/11/01 06:55:14;;;;;;;4.13;2.13;;;9.40;79.50;;;;;;5095417;28;20546;-75
2023/11/01 06:57:41;;;;;;;4.28;2.38;;;9.50;78.90;;;;;;5095074;28;20264;-75
2023/11/01 07:00:11;;;;;;;5.85;2.75;;;9.80;78.70;;;;;;5095255;28;20194;-75
2023/11/01 07:02:38;;;;;;;5.38;2.95;;;10.10;77.10;;;;;;5095360;28;20217;-75
2023/11/01 07:05:05;;;;;;;6.07;3.72;;;10.30;76.60;;;;;;5095422;28;20217;-76
2023/11/01 07:07:32;;;;;;;3.78;2.67;;;10.70;75.90;;;;;;5095369;28;20284;-75
2023/11/01 07:10:00;;;;;;;4.20;2.50;;;11.00;74.50;;;;;;5095471;28;20237;-75
2023/11/01 07:12:27;;;;;;;5.68;2.50;;;11.30;73.20;;;;;;5092348;28;20185;-75
2023/11/01 07:14:54;;;;;;;4.30;2.60;;;11.60;71.60;;;;;;5095014;28;20270;-75
2023/11/01 07:17:26;;;;;;;4.55;3.08;;;12.00;70.50;;;;;;5094356;28;20239;-76
2023/11/01 07:19:54;;;;;;;4.40;2.90;;;12.30;68.80;;;;;;5094260;28;20225;-76
2023/11/01 07:22:21;;;;;;;4.60;2.90;;;12.60;67.90;;;;;;5093610;28;20516;-76
2023/11/01 07:24:48;;;;;;;4.47;2.67;;;12.90;66.50;;;;;;5094515;28;20540;-75
2023/11/01 07:27:15;;;;;;;3.80;2.83;;;13.20;65.60;;;;;;5094117;28;20906;-76
2023/11/01 07:29:42;;;;;;;4.00;2.77;;;13.60;64.50;;;;;;5094523;28;20818;-75
2023/11/01 07:32:10;;;;;;;3.50;2.00;;;13.90;62.30;;;;;;5093545;28;20505;-76
2023/11/01 07:34:38;;;;;;;3.33;2.73;;;14.20;60.10;;;;;;5093921;28;20447;-76
2023/11/01 07:37:05;;;;;;;2.40;1.40;;;14.40;58.90;;;;;;5094477;28;20439;-76
2023/11/01 07:39:32;;;;;;;3.57;2.20;;;14.80;58.10;;;;;;5093634;28;20444;-76
2023/11/01 07:41:59;;;;;;;3.03;2.10;;;15.10;57.20;;;;;;5093972;28;20443;-76
2023/11/01 07:44:26;;;;;;;3.40;2.13;;;15.50;56.80;;;;;;5093848;28;20468;-76
2023/11/01 07:46:53;;;;;;;2.97;1.90;;;15.90;55.10;;;;;;5094130;28;20496;-76
2023/11/01 07:49:20;;;;;;;3.27;1.67;;;16.20;54.50;;;;;;5094204;28;20488;-76
2023/11/01 07:51:48;;;;;;;3.23;2.13;;;16.50;52.40;;;;;;5093177;28;20797;-76
2023/11/01 07:54:15;;;;;;;3.37;2.00;;;16.90;51.60;;;;;;5089427;28;20489;-76
2023/11/01 07:56:42;;;;;;;3.90;2.20;;;17.10;48.70;;;;;;5090288;28;20444;-77
2023/11/01 07:59:10;;;;;;;2.80;1.80;;;17.20;46.80;;;;;;5093036;28;20462;-76
2023/11/01 08:01:38;;;;;;;2.70;1.80;;;17.40;48.10;;;;;;5092797;28;20460;-77
2023/11/01 08:04:06;;;;;;;3.60;2.30;;;17.80;47.40;;;;;;5092372;28;20477;-76
2023/11/01 08:06:33;;;;;;;2.80;1.50;;;18.10;47.60;;;;;;5092639;28;20498;-77
2023/11/01 08:09:01;;;;;;;2.63;1.27;;;18.50;45.70;;;;;;5092885;28;20847;-77
2023/11/01 08:11:28;;;;;;;3.53;1.40;;;18.90;46.10;;;;;;5092521;28;20452;-77
2023/11/01 08:13:55;;;;;;;3.60;1.80;;;19.50;45.60;;;;;;5092639;28;20501;-77
2023/11/01 08:16:22;;;;;;;3.53;1.90;;;19.90;42.80;;;;;;5092761;28;20435;-77
2023/11/01 08:18:55;;;;;;;2.60;1.30;;;20.20;42.90;;;;;;5092013;28;20493;-77
2023/11/01 08:21:22;;;;;;;2.90;1.30;;;20.40;41.40;;;;;;5092435;28;20840;-77
2023/11/01 08:23:49;;;;;;;3.00;1.20;;;20.70;41.40;;;;;;5093011;28;20471;-77
2023/11/01 08:26:19;;;;;;;2.53;1.30;;;20.80;39.70;;;;;;5080927;28;20466;-77
2023/11/01 08:28:46;;;;;;;2.40;0.97;;;21.10;40.20;;;;;;5092509;28;20941;-76
2023/11/01 08:31:13;;;;;;;5.70;1.10;;;21.50;39.70;;;;;;5091855;28;20435;-77
2023/11/01 08:33:40;;;;;;;2.17;0.87;;;21.90;39.70;;;;;;5092501;28;20522;-77
2023/11/01 08:36:08;;;;;;;2.67;1.30;;;22.20;38.80;;;;;;5092270;28;20432;-77
2023/11/01 08:38:35;;;;;;;2.20;1.00;;;22.60;38.40;;;;;;5092915;28;20439;-77
2023/11/01 08:41:02;;;;;;;2.10;0.90;;;23.00;38.30;;;;;;5092637;28;20469;-78
2023/11/01 08:43:31;;;;;;;3.37;0.83;;;23.30;38.50;;;;;;5092311;28;20436;-78
2023/11/01 08:45:58;;;;;;;2.23;0.80;;;23.50;35.20;;;;;;5092443;28;20590;-77
2023/11/01 08:48:25;;;;;;;2.30;1.00;;;23.70;34.90;;;;;;5092762;28;20501;-77
2023/11/01 08:50:52;;;;;;;3.20;1.20;;;23.80;33.60;;;;;;5071337;28;20520;-78
2023/11/01 08:53:19;;;;;;;2.50;0.80;;;24.10;33.50;;;;;;5071979;28;20440;-78
2023/11/01 08:55:46;;;;;;;2.00;0.80;;;24.40;34.10;;;;;;5080830;28;20860;-77
2023/11/01 08:58:13;;;;;;;2.00;0.70;;;25.00;34.10;;;;;;5091317;28;20961;-78
2023/11/01 09:00:42;;;;;;;2.10;0.80;;;25.80;32.00;;;;;;5091346;28;20471;-78
2023/11/01 09:03:09;;;;;;;2.30;0.80;;;26.70;31.20;;;;;;5092330;28;20448;-78
2023/11/01 09:05:36;;;;;;;2.37;1.00;;;27.70;30.00;;;;;;5090680;28;20483;-78
2023/11/01 09:08:03;;;;;;;2.10;0.80;;;28.60;28.50;;;;;;5092594;28;20463;-78
2023/11/01 09:10:30;;;;;;;2.00;0.77;;;29.50;27.50;;;;;;5091478;28;20442;-79
2023/11/01 09:12:57;;;;;;;2.47;0.90;;;30.50;26.20;;;;;;5092032;28;20535;-79
2023/11/01 09:15:24;;;;;;;2.23;0.83;;;31.40;24.80;;;;;;5092523;28;20445;-78
2023/11/01 09:17:53;;;;;;;1.90;0.70;;;32.20;22.80;;;;;;5092315;28;20530;-78
2023/11/01 09:20:20;;;;;;;3.33;0.90;;;33.00;21.90;;;;;;5092245;28;20463;-79
2023/11/01 09:22:47;;;;;;;2.30;1.00;;;33.60;20.40;;;;;;5092120;28;20442;-78
2023/11/01 09:25:14;;;;;;;2.00;0.80;;;33.80;19.30;;;;;;5091142;28;20478;-78
2023/11/01 09:27:41;;;;;;;2.20;0.83;;;34.20;19.10;;;;;;5091861;28;20427;-78
2023/11/01 09:30:09;;;;;;;2.70;1.30;;;34.80;18.80;;;;;;5092229;28;20526;-79
2023/11/01 09:32:37;;;;;;;2.50;0.87;;;35.60;17.90;;;;;;5090367;28;20976;-78
2023/11/01 09:35:08;;;;;;;2.50;0.80;;;35.80;16.60;;;;;;5091661;28;20530;-78
2023/11/01 09:37:35;;;;;;;1.90;0.63;;;36.50;17.00;;;;;;5091161;28;20467;-79
2023/11/01 09:40:02;;;;;;;2.00;0.70;;;37.30;16.10;;;;;;5090999;28;20436;-79
2023/11/01 09:42:32;;;;;;;2.20;0.70;;;37.70;14.80;;;;;;5091976;28;20828;-78
2023/11/01 09:44:59;;;;;;;1.90;0.60;;;38.10;14.90;;;;;;5091700;28;20907;-79
2023/11/01 09:47:26;;;;;;;2.87;0.70;;;38.80;14.50;;;;;;5091978;28;20432;-79
2023/11/01 09:49:55;;;;;;;2.10;0.80;;;39.50;13.30;;;;;;5092289;28;20435;-78
2023/11/01 09:52:24;;;;;;;2.40;0.80;;;40.00;13.30;;;;;;5091468;28;20475;-79
2023/11/01 09:54:51;;;;;;;2.30;0.70;;;40.70;12.60;;;;;;5092241;28;20559;-79
2023/11/01 09:57:22;;;;;;;2.10;0.70;;;41.40;13.00;;;;;;5095091;28;20430;-79
2023/11/01 09:59:49;;;;;;;2.83;0.70;;;42.00;11.40;;;;;;5095854;28;20442;-79
2023/11/01 10:02:16;;;;;;;2.07;0.70;;;42.40;11.00;;;;;;5098935;28;20453;-76
2023/11/01 10:04:51;;;;;;;1.90;0.70;;;42.90;11.40;;;;;;5108084;28;20963;-76
2023/11/01 10:07:19;;;;;;;1.80;0.60;;;43.50;10.70;;;;;;5115909;28;20433;-75
2023/11/01 10:09:48;;;;;;;2.83;0.70;;;43.30;10.60;;;;;;5098247;28;20589;-76
2023/11/01 10:12:16;;;;;;;2.00;0.60;;;43.40;10.50;;;;;;5096075;28;20431;-76
2023/11/01 10:14:45;;;;;;;2.00;0.60;;;43.60;9.90;;;;;;5095809;28;20540;-76
2023/11/01 10:17:14;;;;;;;1.97;0.63;;;43.90;10.10;;;;;;5096018;28;20439;-76
2023/11/01 10:19:46;;;;;;;2.47;0.70;;;44.40;10.10;;;;;;5104362;28;20796;-76
2023/11/01 10:22:18;;;;;;;2.30;0.70;;;44.80;9.80;;;;;;5095780;28;20439;-76
2023/11/01 10:24:47;;;;;;;1.93;0.70;;;45.00;9.80;;;;;;5095188;28;20523;-76
2023/11/01 10:27:15;;;;;;;2.30;0.60;;;45.10;9.80;;;;;;5095000;28;20917;-76
2023/11/01 10:29:47;;;;;;;2.30;0.87;;;45.50;9.30;;;;;;5095374;28;20435;-77
2023/11/01 10:32:15;;;;;;;2.90;1.00;;;45.80;8.40;;;;;;5095215;28;20510;-76
2023/11/01 10:34:42;;;;;;;2.33;0.70;;;46.00;9.30;;;;;;5095177;28;20505;-77
2023/11/01 10:37:09;;;;;;;1.80;0.63;;;46.40;8.70;;;;;;5095143;28;20463;-76
2023/11/01 10:39:39;;;;;;;2.20;0.80;;;46.80;8.30;;;;;;5096045;28;20443;-76
2023/11/01 10:42:10;;;;;;;2.77;0.50;;;47.30;8.00;;;;;;5095380;28;20427;-76
2023/11/01 10:44:38;;;;;;;3.03;0.80;;;47.60;8.70;;;;;;5094989;28;20460;-76
2023/11/01 10:47:07;;;;;;;2.27;0.70;;;47.50;7.70;;;;;;5094575;28;20471;-79
2023/11/01 10:49:35;;;;;;;2.10;0.77;;;47.40;7.70;;;;;;5097854;28;20468;-79
2023/11/01 10:52:03;;;;;;;1.90;0.60;;;46.90;8.10;;;;;;5114322;28;20483;-79
2023/11/01 10:54:34;;;;;;;2.30;0.90;;;46.80;7.40;;;;;;5115110;28;20430;-76
2023/11/01 10:57:04;;;;;;;2.10;0.70;;;46.50;6.50;;;;;;5106708;28;20435;-76
2023/11/01 10:59:39;;;;;;;2.50;0.60;;;44.80;6.50;;;;;;5094012;28;20476;-76
2023/11/01 11:02:16;;;;;;;2.30;0.60;;;43.00;8.30;;;;;;5094764;28;20422;-76
2023/11/01 11:04:50;;;;;;;2.00;0.60;;;42.60;8.30;;;;;;5094695;28;20472;-76
2023/11/01 11:07:23;;;;;;;4.40;0.77;;;43.20;8.90;;;;;;5094137;28;20423;-76
2023/11/01 11:09:51;;;;;;;2.07;0.60;;;44.10;8.90;;;;;;5093620;28;20425;-77
2023/11/01 11:12:20;;;;;;;2.83;0.80;;;44.30;8.30;;;;;;5094000;28;20443;-76
2023/11/01 11:14:50;;;;;;;2.47;1.00;;;44.30;9.20;;;;;;5094752;28;20473;-77
2023/11/01 11:17:20;;;;;;;2.40;0.70;;;44.90;8.20;;;;;;5094538;28;20443;-77
2023/11/01 11:20:12;;;;;;;2.27;0.63;;;45.60;8.30;;;;;;5094500;28;20467;-77
2023/11/01 11:23:08;;;;;;;2.10;0.70;;;46.20;7.80;;;;;;5094334;28;20435;-77
2023/11/01 11:25:51;;;;;;;2.33;0.70;;;46.20;7.30;;;;;;5067961;28;21243;-77
2023/11/01 11:28:42;;;;;;;2.10;0.73;;;46.30;7.10;;;;;;5091458;28;20808;-76
2023/11/01 11:31:12;;;;;;;2.83;0.80;;;45.70;6.90;;;;;;5093648;28;20443;-77
2023/11/01 11:34:17;;;;;;;1.90;0.60;;;45.30;7.50;;;;;;5093292;28;20439;-77
2023/11/01 11:37:11;;;;;;;1.90;0.50;;;45.20;7.40;;;;;;5062621;28;20470;-76
2023/11/01 11:40:06;;;;;;;2.87;0.80;;;44.30;7.10;;;;;;5062155;28;20450;-77
2023/11/01 11:42:52;;;;;;;2.00;0.60;;;42.30;7.90;;;;;;5109540;28;20492;-76
2023/11/01 11:45:29;;;;;;;1.90;0.60;;;40.10;9.00;;;;;;5111331;28;20493;-77
2023/11/01 11:47:57;;;;;;;2.00;0.50;;;38.20;10.10;;;;;;5114335;28;20436;-78
2023/11/01 11:50:24;;;;;;;2.10;0.60;;;36.30;11.00;;;;;;5095986;28;20816;-78
2023/11/01 11:52:52;;;;;;;2.00;0.60;;;34.60;12.30;;;;;;5102675;28;20506;-77
2023/11/01 11:55:41;;;;;;;2.90;0.60;;;33.10;12.50;;;;;;5113905;28;20465;-78
2023/11/01 11:58:08;;;;;;;1.90;0.60;;;31.50;14.70;;;;;;5114241;27;20932;-77
2023/11/01 12:00:36;;;;;;;2.20;0.60;;;30.20;15.70;;;;;;5102337;28;20427;-77
2023/11/01 12:03:22;;;;;;;2.00;0.70;;;29.20;17.00;;;;;;5105261;28;20430;-76
2023/11/01 12:05:59;;;;;;;2.10;0.70;;;28.30;17.90;;;;;;5085959;28;20484;-77
2023/11/01 12:08:37;;;;;;;1.83;0.63;;;27.70;19.40;;;;;;5091587;28;20537;-77
2023/11/01 12:11:04;;;;;;;1.83;0.57;;;27.20;19.80;;;;;;5090874;28;20408;-76
2023/11/01 12:13:45;;;;;;;3.10;0.70;;;27.10;20.70;;;;;;5092357;28;20474;-76
2023/11/01 12:16:24;;;;;;;1.90;0.60;;;27.00;20.50;;;;;;5093512;28;20452;-77
2023/11/01 12:19:08;;;;;;;3.20;0.63;;;26.70;20.50;;;;;;5092934;28;20477;-76
2023/11/01 12:21:39;;;;;;;2.10;0.60;;;26.60;21.00;;;;;;5092448;28;20468;-76
2023/11/01 12:24:07;;;;;;;2.00;0.60;;;26.90;20.90;;;;;;5091233;28;20497;-76
2023/11/01 12:26:54;;;;;;;1.70;0.50;;;27.30;20.50;;;;;;5091433;28;20443;-77
2023/11/01 12:29:21;;;;;;;2.67;0.67;;;26.90;21.30;;;;;;5090730;28;20818;-76
2023/11/01 12:32:00;;;;;;;1.80;0.60;;;26.70;22.10;;;;;;5092480;28;20913;-76
2023/11/01 12:34:29;;;;;;;1.80;0.57;;;26.40;22.30;;;;;;5094099;28;20484;-76
2023/11/01 12:37:03;;;;;;;1.87;0.70;;;26.00;22.30;;;;;;5093598;28;20501;-76
2023/11/01 12:39:30;;;;;;;1.93;0.50;;;25.90;22.60;;;;;;5093687;28;20956;-76
2023/11/01 12:41:57;;;;;;;1.93;0.60;;;26.40;23.80;;;;;;5093846;28;20500;-76
2023/11/01 12:44:24;;;;;;;2.27;0.70;;;27.30;22.00;;;;;;5093878;28;20850;-76
2023/11/01 12:46:51;;;;;;;2.30;0.60;;;27.80;22.00;;;;;;5093885;28;20462;-76
2023/11/01 12:49:18;;;;;;;2.37;0.60;;;28.10;21.10;;;;;;5093809;28;20517;-76
2023/11/01 12:51:46;;;;;;;2.10;0.60;;;27.80;21.00;;;;;;5093823;28;20489;-76
2023/11/01 12:54:13;;;;;;;2.13;0.70;;;28.50;21.10;;;;;;5093458;28;20826;-76
2023/11/01 12:56:41;;;;;;;2.00;0.73;;;29.50;18.90;;;;;;5093662;28;20474;-76
2023/11/01 12:59:10;;;;;;;1.77;0.60;;;29.90;18.60;;;;;;5093735;28;20426;-76
2023/11/01 13:01:37;;;;;;;1.80;0.50;;;30.00;18.50;;;;;;5093746;28;20751;-76